Terminal Aerodrome Forecast
Issued by NWS

Home | Current Version | Previous Version | Text Only | Print | Product List | Glossary On
Versions: 1 2 3 4 5 6 7 8 9 10 11 12 13 14 15 16 17 18 19 20 21 22 23 24 25 26 27 28 29 30 31 32 33 34 35 36 37 38 39 40 41 42 43 44 45 46 47 48 49 50
000
FTUS45 KBOU 231142
TAFBJC
TAF
KBJC 231142Z 2312/2412 35005KT P6SM FEW090 SCT160
     FM232200 33008KT P6SM SCT090 BKN140
     FM240300 01015G25KT P6SM SCT025 OVC050
     FM240600 03013G21KT P6SM VCSH BKN015 OVC025
      TEMPO 2408/2412 2SM -SHSN BR BKN006=

USA.gov is the U.S. government's official web portal to all federal, state and local government web resources and services.